Time;durP1;ratioP1;P1;durP2;ratioP2;P2;SDS_P1;SDS_P2;PMS_P1;PMS_P2;Temp;Humidity;BMP_temperature;BMP_pressure;BME280_temperature;BME280_humidity;BME280_pressure;Samples;Min_cycle;Max_cycle;Signal;HPM_P1;HPM_P2
2021/10/02 00:34:15;;;;;;;17.50;14.70;;;;;;;9.28;83.08;101152.34;93640;1198;79678;-70
2021/10/02 00:36:36;;;;;;;19.80;14.70;;;;;;;9.27;83.19;101151.73;93875;1196;81395;-68
2021/10/02 00:41:16;;;;;;;17.90;14.10;;;;;;;9.27;83.13;101142.52;93934;1196;87426;-68
2021/10/02 00:45:43;;;;;;;18.30;16.00;;;;;;;9.26;83.26;101135.48;93872;1195;79053;-68
2021/10/02 00:47:48;;;;;;;17.40;14.70;;;;;;;9.24;83.25;101132.81;93931;1196;81703;-69
2021/10/02 00:49:55;;;;;;;17.80;14.20;;;;;;;9.22;83.39;101134.08;93964;1196;97777;-69
2021/10/02 00:52:03;;;;;;;19.10;14.20;;;;;;;9.21;83.34;101131.55;93913;1196;86270;-69
2021/10/02 00:54:08;;;;;;;16.30;14.10;;;;;;;9.23;83.40;101136.48;93991;1196;94323;-68
2021/10/02 00:56:12;;;;;;;16.80;15.10;;;;;;;9.22;83.39;101131.95;93930;1196;80457;-69
2021/10/02 00:58:17;;;;;;;18.50;14.30;;;;;;;9.23;83.41;101129.88;93978;1196;82168;-69
2021/10/02 01:00:21;;;;;;;17.50;14.30;;;;;;;9.19;83.48;101130.51;93966;1196;99558;-65
2021/10/02 01:02:32;;;;;;;18.90;14.10;;;;;;;9.18;83.53;101129.55;93905;1196;88155;-64
2021/10/02 01:04:53;;;;;;;16.80;13.90;;;;;;;9.20;83.45;101124.30;93939;1195;93247;-66
2021/10/02 01:07:15;;;;;;;16.60;13.90;;;;;;;9.23;83.57;101121.95;94004;1196;79626;-70
2021/10/02 01:09:51;;;;;;;19.70;15.00;;;;;;;9.20;83.41;101119.22;93825;1196;80838;-70
2021/10/02 01:12:05;;;;;;;18.10;15.00;;;;;;;9.20;83.42;101118.30;93803;1196;100430;-65
2021/10/02 01:14:15;;;;;;;;;;;;;;;9.16;83.40;101115.73;93781;1196;87134;-65
2021/10/02 01:16:26;;;;;;;18.20;14.80;;;;;;;9.15;83.52;101112.45;93928;1196;93917;-70
2021/10/02 01:18:35;;;;;;;19.30;15.40;;;;;;;9.17;83.53;101110.00;93954;1196;77895;-70
2021/10/02 01:21:03;;;;;;;17.90;14.40;;;;;;;9.19;83.52;101105.70;93946;1196;80993;-64
2021/10/02 01:23:26;;;;;;;16.50;14.10;;;;;;;9.11;83.43;101105.47;93943;1195;99498;-65
2021/10/02 01:26:03;;;;;;;17.20;14.10;;;;;;;9.07;83.38;101101.78;93751;1196;88246;-69
2021/10/02 01:28:12;;;;;;;18.40;14.50;;;;;;;9.06;83.40;101100.27;93938;1196;94284;-69
2021/10/02 01:30:34;;;;;;;18.60;14.70;;;;;;;8.97;83.60;101101.20;93943;1196;78851;-68
2021/10/02 01:32:49;;;;;;;17.40;13.80;;;;;;;8.98;83.41;101098.47;93948;1196;80899;-69
2021/10/02 01:35:08;;;;;;;17.00;13.70;;;;;;;8.95;83.31;101093.09;93916;1195;98286;-69
2021/10/02 01:37:23;;;;;;;17.20;15.00;;;;;;;8.88;83.31;101090.89;93911;1195;88815;-68
2021/10/02 01:49:08;;;;;;;22.90;16.60;;;;;;;8.74;83.48;101079.77;93792;1196;87580;-65
2021/10/02 01:51:15;;;;;;;23.70;16.20;;;;;;;8.71;83.49;101082.41;93858;1196;93952;-65
2021/10/02 01:53:21;;;;;;;20.80;16.60;;;;;;;8.75;83.60;101078.80;93868;1196;77018;-65
2021/10/02 01:55:28;;;;;;;22.40;17.40;;;;;;;8.79;83.81;101077.80;93889;1196;80856;-69
2021/10/02 01:57:39;;;;;;;25.50;17.80;;;;;;;8.81;83.84;101076.08;93881;1196;100007;-68
2021/10/02 01:59:48;;;;;;;24.70;18.00;;;;;;;8.90;83.92;101073.98;93920;1196;87425;-68
2021/10/02 02:01:54;;;;;;;21.90;17.70;;;;;;;8.94;84.07;101075.52;93920;1196;92794;-64
2021/10/02 02:04:00;;;;;;;23.90;18.20;;;;;;;9.03;84.02;101076.30;93862;1196;82522;-66
2021/10/02 02:06:05;;;;;;;24.20;19.40;;;;;;;9.11;84.03;101077.24;93882;1196;80893;-66
2021/10/02 02:08:13;;;;;;;25.50;19.20;;;;;;;9.20;84.06;101072.75;93869;1196;99489;-66
2021/10/02 02:10:24;;;;;;;28.40;20.40;;;;;;;9.27;84.21;101070.14;93858;1196;86784;-70
2021/10/02 02:12:32;;;;;;;26.40;19.50;;;;;;;9.30;84.31;101070.11;93877;1196;94284;-69
2021/10/02 02:14:39;;;;;;;26.30;20.80;;;;;;;9.35;84.32;101067.05;93900;1196;79752;-68
2021/10/02 02:16:46;;;;;;;25.70;19.60;;;;;;;9.42;84.45;101063.67;93871;1196;79743;-65
2021/10/02 02:18:54;;;;;;;30.30;22.70;;;;;;;9.49;84.47;101069.01;93869;1196;99864;-64
2021/10/02 02:21:02;;;;;;;29.80;22.60;;;;;;;9.54;84.70;101063.10;93884;1196;87417;-65
2021/10/02 02:23:08;;;;;;;29.30;21.20;;;;;;;9.59;84.61;101061.81;93842;1196;95628;-65
2021/10/02 02:25:13;;;;;;;34.10;22.50;;;;;;;9.66;84.65;101061.55;93849;1197;81005;-63
2021/10/02 02:27:18;;;;;;;32.00;21.80;;;;;;;9.69;84.73;101058.00;93859;1196;80940;-66
2021/10/02 02:29:22;;;;;;;31.90;22.20;;;;;;;9.74;84.71;101053.95;93881;1196;100524;-65
2021/10/02 02:31:28;;;;;;;36.90;24.30;;;;;;;9.78;84.90;101050.46;93901;1196;87009;-66
2021/10/02 02:33:33;;;;;;;35.60;23.00;;;;;;;9.79;84.85;101049.89;93848;1196;94855;-65
2021/10/02 02:35:38;;;;;;;37.10;24.10;;;;;;;9.82;84.83;101047.77;93854;1196;80293;-67
2021/10/02 02:37:45;;;;;;;31.80;22.00;;;;;;;9.81;84.88;101043.84;93927;1196;81792;-70
2021/10/02 02:39:49;;;;;;;34.40;23.10;;;;;;;9.85;84.80;101042.88;93895;1196;98199;-64
2021/10/02 02:41:54;;;;;;;34.70;23.70;;;;;;;9.85;84.81;101041.12;93837;1196;87189;-66
2021/10/02 02:43:58;;;;;;;31.90;22.20;;;;;;;9.86;84.79;101042.07;93907;1196;94530;-65
2021/10/02 02:46:11;;;;;;;35.60;23.10;;;;;;;9.87;84.71;101039.73;93821;1197;79992;-66
2021/10/02 02:48:21;;;;;;;34.60;22.90;;;;;;;9.86;84.71;101032.85;93890;1195;80252;-65
2021/10/02 02:50:33;;;;;;;34.60;23.00;;;;;;;9.87;84.79;101033.70;93899;1196;98536;-68
2021/10/02 02:52:44;;;;;;;36.10;23.30;;;;;;;9.88;84.78;101028.70;93901;1197;89159;-66
2021/10/02 02:55:02;;;;;;;35.80;23.80;;;;;;;9.90;84.77;101019.48;93894;1196;94606;-65
2021/10/02 02:57:14;;;;;;;33.70;21.10;;;;;;;9.89;84.72;101021.18;93839;1197;80050;-66
2021/10/02 02:59:25;;;;;;;33.00;23.30;;;;;;;9.85;84.77;101018.89;93889;1196;81173;-66
2021/10/02 03:01:31;;;;;;;32.60;22.70;;;;;;;9.86;84.77;101017.33;93888;1196;100202;-69
2021/10/02 03:03:40;;;;;;;32.70;22.20;;;;;;;9.88;84.73;101016.08;93857;1195;86856;-69
2021/10/02 03:05:44;;;;;;;33.80;21.80;;;;;;;9.90;84.66;101015.54;93855;1197;94308;-70
2021/10/02 03:07:56;;;;;;;31.20;21.50;;;;;;;9.89;84.72;101014.70;93884;1190;80426;-68
2021/10/02 03:10:02;;;;;;;32.70;21.50;;;;;;;9.90;84.64;101015.31;93891;1195;80831;-69
2021/10/02 03:12:11;;;;;;;35.30;23.80;;;;;;;9.92;84.71;101013.89;93842;1195;98579;-68
2021/10/02 03:14:19;;;;;;;32.50;22.10;;;;;;;9.92;84.65;101014.53;93910;1196;86924;-69
2021/10/02 03:16:27;;;;;;;31.00;21.20;;;;;;;9.93;84.71;101016.42;93848;1196;93407;-68
2021/10/02 03:18:34;;;;;;;31.30;20.60;;;;;;;9.92;84.69;101022.86;93852;1196;80825;-68
2021/10/02 03:20:39;;;;;;;30.70;20.30;;;;;;;9.92;84.64;101018.81;93847;1196;81905;-64
2021/10/02 03:22:51;;;;;;;35.40;22.10;;;;;;;9.95;84.73;101017.60;93915;1195;99903;-67
2021/10/02 03:24:57;;;;;;;31.50;21.80;;;;;;;9.93;84.80;101011.92;93956;1195;87470;-69
2021/10/02 03:27:03;;;;;;;32.00;21.60;;;;;;;9.92;84.74;101015.62;93880;1196;93856;-69
2021/10/02 03:29:08;;;;;;;31.70;20.90;;;;;;;9.94;84.71;101015.23;93908;1196;79690;-70
2021/10/02 03:31:13;;;;;;;29.10;20.80;;;;;;;9.94;84.67;101012.46;93882;1195;81018;-66
2021/10/02 03:33:20;;;;;;;30.30;19.70;;;;;;;9.96;84.63;101009.27;93914;1195;99330;-65
2021/10/02 03:35:25;;;;;;;31.60;20.90;;;;;;;9.99;84.61;101008.77;93902;1196;86873;-66
2021/10/02 03:37:30;;;;;;;27.50;20.30;;;;;;;9.99;84.66;101003.16;93947;1196;93928;-66
2021/10/02 03:39:36;;;;;;;29.50;19.30;;;;;;;9.98;84.67;101004.11;93930;1196;78479;-65
2021/10/02 03:41:40;;;;;;;27.50;18.90;;;;;;;9.98;84.64;101005.09;93914;1196;81791;-68
2021/10/02 03:43:44;;;;;;;27.60;19.20;;;;;;;9.98;84.67;101009.70;93874;1196;97271;-69
2021/10/02 03:45:49;;;;;;;23.50;16.70;;;;;;;9.97;84.72;101006.40;93782;1196;87374;-65
2021/10/02 03:47:53;;;;;;;25.10;17.40;;;;;;;9.94;84.78;101009.96;93853;1196;94939;-65
2021/10/02 03:49:57;;;;;;;22.20;17.10;;;;;;;9.95;84.72;101010.11;93833;1197;78393;-69
2021/10/02 03:52:01;;;;;;;23.00;16.10;;;;;;;9.97;84.67;101007.73;93854;1196;82024;-68
2021/10/02 03:54:06;;;;;;;22.50;15.60;;;;;;;9.94;84.85;101008.59;93832;1190;100873;-68
2021/10/02 03:56:11;;;;;;;20.70;15.10;;;;;;;9.90;84.92;101008.53;93810;1196;88459;-63
2021/10/02 03:58:18;;;;;;;20.60;15.60;;;;;;;9.86;84.86;101008.06;93858;1195;92809;-65
2021/10/02 04:00:23;;;;;;;19.90;15.20;;;;;;;9.87;85.04;101007.43;93806;1196;77894;-67
2021/10/02 04:02:28;;;;;;;22.10;15.10;;;;;;;9.82;85.06;101006.11;93852;1196;81662;-69
2021/10/02 04:04:32;;;;;;;21.30;15.10;;;;;;;9.79;85.11;101004.02;93778;1195;100339;-68
2021/10/02 04:06:36;;;;;;;20.40;14.30;;;;;;;9.77;85.15;101005.14;93785;1196;85924;-70
2021/10/02 04:08:41;;;;;;;20.50;15.50;;;;;;;9.77;85.15;101006.21;93806;1195;94668;-70
2021/10/02 04:10:46;;;;;;;18.40;14.60;;;;;;;9.80;85.09;101002.60;93788;1196;78703;-68
2021/10/02 04:12:51;;;;;;;21.40;15.40;;;;;;;9.83;85.14;101007.31;93827;1195;81608;-67
2021/10/02 04:14:55;;;;;;;20.00;15.50;;;;;;;9.80;85.21;101008.30;93823;1195;100497;-69
2021/10/02 04:16:59;;;;;;;20.00;14.70;;;;;;;9.81;85.22;101008.39;93769;1197;86726;-69
2021/10/02 04:19:04;;;;;;;21.70;16.00;;;;;;;9.80;85.19;101009.43;93858;1196;93967;-68
2021/10/02 04:21:09;;;;;;;19.10;15.10;;;;;;;9.83;85.16;101011.60;93766;1197;79311;-69
2021/10/02 04:23:13;;;;;;;21.50;16.40;;;;;;;9.84;85.20;101013.52;93945;1196;80711;-73
2021/10/02 04:25:17;;;;;;;21.50;15.00;;;;;;;9.83;85.26;101014.13;93805;1195;99849;-67
2021/10/02 04:27:22;;;;;;;19.80;14.40;;;;;;;9.82;85.27;101011.73;93846;1196;87873;-67
2021/10/02 04:29:26;;;;;;;21.40;14.80;;;;;;;9.83;85.30;101009.14;93815;1196;93350;-68
2021/10/02 04:31:30;;;;;;;19.70;14.90;;;;;;;9.88;85.24;101008.73;93766;1196;78355;-69
2021/10/02 04:33:35;;;;;;;19.40;14.10;;;;;;;9.87;85.29;101006.48;93817;1196;80229;-70
2021/10/02 04:35:39;;;;;;;20.70;14.60;;;;;;;9.90;85.22;101003.84;93854;1196;99399;-67
2021/10/02 04:37:45;;;;;;;21.10;14.80;;;;;;;9.87;85.28;101003.61;93814;1196;86532;-67
2021/10/02 04:39:52;;;;;;;19.20;14.10;;;;;;;9.83;85.30;101002.95;93812;1196;92882;-67
2021/10/02 04:41:56;;;;;;;18.10;13.70;;;;;;;9.81;85.43;101005.91;93877;1197;80210;-66
2021/10/02 04:44:00;;;;;;;19.20;14.30;;;;;;;9.81;85.40;101003.34;93857;1196;81846;-67
2021/10/02 04:46:04;;;;;;;21.20;15.60;;;;;;;9.81;85.49;101006.81;93822;1195;98840;-69
2021/10/02 04:48:09;;;;;;;18.60;12.90;;;;;;;9.83;85.59;101006.55;93843;1196;87827;-67
2021/10/02 04:50:14;;;;;;;16.70;12.00;;;;;;;9.78;85.73;101003.52;93811;1196;93521;-66
2021/10/02 04:52:18;;;;;;;17.40;12.40;;;;;;;9.74;85.80;101000.73;93794;1196;80076;-66
2021/10/02 04:54:25;;;;;;;18.30;12.70;;;;;;;9.75;85.57;100999.54;93854;1196;81474;-68
2021/10/02 04:56:32;;;;;;;18.60;13.20;;;;;;;9.77;85.74;100999.91;93817;1196;100577;-68
2021/10/02 04:58:37;;;;;;;16.80;12.00;;;;;;;9.77;85.71;101004.73;93832;1196;86344;-70
2021/10/02 05:00:41;;;;;;;18.10;13.60;;;;;;;9.79;85.76;101002.40;93803;1196;95783;-67
2021/10/02 05:02:48;;;;;;;19.60;14.40;;;;;;;9.80;85.70;101003.54;93830;1196;79419;-64
2021/10/02 05:04:52;;;;;;;20.30;13.80;;;;;;;9.82;85.69;100999.27;93869;1195;81318;-64
2021/10/02 05:06:56;;;;;;;20.00;14.20;;;;;;;9.86;85.74;100994.94;93772;1195;98720;-67
2021/10/02 05:09:00;;;;;;;19.60;14.50;;;;;;;9.86;85.89;100992.95;93836;1196;88276;-67
2021/10/02 05:11:05;;;;;;;18.80;12.70;;;;;;;9.88;85.77;100986.73;93822;1196;94321;-69
2021/10/02 05:13:13;;;;;;;19.40;13.90;;;;;;;9.88;85.74;100984.77;93836;1196;79678;-71
2021/10/02 05:15:17;;;;;;;18.40;13.10;;;;;;;9.90;85.83;100980.44;93710;1196;80474;-68
2021/10/02 05:17:21;;;;;;;18.80;13.40;;;;;;;9.89;85.89;100975.17;93884;1196;99081;-69
2021/10/02 05:19:25;;;;;;;19.50;13.30;;;;;;;9.89;85.86;100969.95;93856;1195;86177;-68
2021/10/02 05:21:29;;;;;;;20.30;13.60;;;;;;;9.89;86.16;100962.65;93810;1195;94061;-66
2021/10/02 05:23:33;;;;;;;19.10;13.40;;;;;;;9.88;85.96;100964.80;93745;1196;79513;-67
2021/10/02 05:25:38;;;;;;;19.60;13.90;;;;;;;9.90;86.00;100975.02;93870;1196;80613;-67
2021/10/02 05:27:42;;;;;;;19.70;14.50;;;;;;;9.93;86.10;100977.05;93820;1196;99578;-66
2021/10/02 05:29:46;;;;;;;20.80;13.50;;;;;;;10.00;86.05;100977.52;93838;1189;87483;-67
2021/10/02 05:31:50;;;;;;;21.30;13.70;;;;;;;10.04;86.01;100974.09;93804;1195;94058;-72
2021/10/02 05:33:54;;;;;;;20.00;13.40;;;;;;;10.09;85.97;100970.17;93829;1196;78980;-69
2021/10/02 05:35:58;;;;;;;21.90;13.70;;;;;;;10.13;86.03;100972.08;93802;1196;81484;-66
2021/10/02 05:38:03;;;;;;;20.60;13.50;;;;;;;10.14;86.12;100978.09;93834;1196;99998;-67
2021/10/02 05:40:09;;;;;;;21.90;14.70;;;;;;;10.12;86.10;100977.47;93811;1195;87606;-67
2021/10/02 05:42:13;;;;;;;19.60;13.30;;;;;;;10.16;86.00;100977.01;93686;1196;92900;-67
2021/10/02 05:44:18;;;;;;;21.20;14.40;;;;;;;10.18;85.91;100977.80;93784;1196;80803;-67
2021/10/02 05:46:22;;;;;;;20.90;14.50;;;;;;;10.22;85.87;100973.05;93761;1196;80495;-69
2021/10/02 05:48:26;;;;;;;22.40;14.70;;;;;;;10.27;85.90;100975.05;93818;1196;98691;-69
2021/10/02 05:50:30;;;;;;;21.40;14.10;;;;;;;10.25;85.99;100967.09;93791;1196;87719;-71
2021/10/02 05:52:34;;;;;;;21.30;14.90;;;;;;;10.24;85.90;100964.77;93697;1196;93935;-68
2021/10/02 05:54:39;;;;;;;21.10;13.60;;;;;;;10.29;85.79;100969.17;93674;1196;81730;-69
2021/10/02 05:56:43;;;;;;;23.40;15.50;;;;;;;10.28;85.87;100972.34;93722;1196;80743;-69
2021/10/02 05:58:47;;;;;;;22.90;15.90;;;;;;;10.29;85.78;100971.20;93767;1196;99531;-69
2021/10/02 06:00:51;;;;;;;22.60;15.40;;;;;;;10.35;85.74;100970.91;93751;1191;86805;-66
2021/10/02 06:02:56;;;;;;;22.20;14.80;;;;;;;10.36;85.73;100973.02;93745;1182;93301;-67
2021/10/02 06:05:05;;;;;;;27.00;16.40;;;;;;;10.35;85.78;100969.59;93703;1196;80053;-69
2021/10/02 06:07:10;;;;;;;25.70;16.00;;;;;;;10.37;85.84;100973.16;93799;1196;82120;-70
2021/10/02 06:09:14;;;;;;;25.20;16.40;;;;;;;10.38;85.87;100975.88;93702;1196;98501;-69
2021/10/02 06:11:19;;;;;;;23.40;15.80;;;;;;;10.38;85.94;100970.65;93814;1196;86976;-71
2021/10/02 06:13:24;;;;;;;23.90;16.30;;;;;;;10.40;85.89;100973.13;93810;1196;93451;-69
2021/10/02 06:15:31;;;;;;;26.10;16.30;;;;;;;10.44;85.84;100974.90;93775;1196;80778;-69
2021/10/02 06:17:36;;;;;;;27.10;16.60;;;;;;;10.47;85.85;100972.70;93712;1196;80652;-67
2021/10/02 06:19:42;;;;;;;42.10;26.90;;;;;;;10.51;85.75;100975.17;93791;1196;100278;-68
2021/10/02 06:21:49;;;;;;;84.30;63.20;;;;;;;10.52;85.88;100976.48;93783;1196;87100;-69
2021/10/02 06:23:58;;;;;;;33.30;21.20;;;;;;;10.56;85.88;100973.33;93771;1195;94176;-72
2021/10/02 06:26:02;;;;;;;26.80;17.30;;;;;;;10.57;85.85;100970.86;93742;1196;81566;-69
2021/10/02 06:28:07;;;;;;;26.20;16.70;;;;;;;10.59;85.81;100967.09;93773;1195;81815;-69
2021/10/02 06:30:12;;;;;;;23.10;15.00;;;;;;;10.59;85.78;100967.17;93733;1195;99869;-67
2021/10/02 06:32:16;;;;;;;26.20;16.30;;;;;;;10.60;85.77;100967.36;93788;1196;86387;-67
2021/10/02 06:34:20;;;;;;;24.10;17.10;;;;;;;10.66;85.80;100961.70;93774;1195;93817;-67
2021/10/02 06:36:26;;;;;;;29.70;17.20;;;;;;;10.72;85.71;100964.38;93729;1196;79792;-67
2021/10/02 06:38:31;;;;;;;26.60;17.80;;;;;;;10.78;85.65;100959.05;93769;1196;80911;-67
2021/10/02 06:40:38;;;;;;;25.30;16.90;;;;;;;10.80;85.54;100955.34;93791;1196;99320;-67
2021/10/02 06:42:45;;;;;;;28.20;17.40;;;;;;;10.77;85.62;100954.61;93832;1196;87820;-68
2021/10/02 06:44:49;;;;;;;27.00;16.90;;;;;;;10.75;85.76;100960.69;93728;1196;94065;-69
2021/10/02 06:46:54;;;;;;;26.30;17.70;;;;;;;10.75;85.68;100960.27;93739;1196;78002;-70
2021/10/02 06:48:58;;;;;;;27.20;17.50;;;;;;;10.79;85.66;100963.52;93769;1196;80943;-69
2021/10/02 06:51:02;;;;;;;26.00;17.40;;;;;;;10.79;85.64;100962.86;93731;1196;99572;-68
2021/10/02 06:53:06;;;;;;;26.60;16.90;;;;;;;10.86;85.61;100964.73;93795;1196;86578;-69
2021/10/02 06:55:11;;;;;;;24.80;16.70;;;;;;;10.95;85.56;100967.29;93765;1196;92737;-67
2021/10/02 06:57:15;;;;;;;25.70;17.30;;;;;;;11.01;85.64;100968.58;93782;1196;80596;-66
2021/10/02 06:59:20;;;;;;;25.10;16.10;;;;;;;10.99;85.54;100973.27;93802;1195;80856;-67
2021/10/02 07:01:24;;;;;;;27.00;16.30;;;;;;;11.03;85.45;100975.97;93751;1191;98602;-69
2021/10/02 07:03:31;;;;;;;24.20;16.10;;;;;;;10.99;85.33;100972.81;93785;1195;88010;-69
2021/10/02 07:05:38;;;;;;;26.10;17.60;;;;;;;11.01;85.41;100975.06;93731;1196;93818;-67
2021/10/02 07:07:43;;;;;;;22.50;16.90;;;;;;;11.06;85.31;100975.16;93822;1195;81598;-68
2021/10/02 07:09:47;;;;;;;24.10;15.80;;;;;;;11.11;85.21;100978.95;93823;1196;81355;-71
2021/10/02 07:11:52;;;;;;;23.20;16.10;;;;;;;11.15;85.20;100980.28;93847;1195;99167;-70
2021/10/02 07:13:56;;;;;;;25.80;16.50;;;;;;;11.18;85.10;100988.17;93833;1196;86685;-70
2021/10/02 07:16:00;;;;;;;23.40;16.50;;;;;;;11.22;85.07;100981.59;93807;1195;94217;-70
2021/10/02 07:18:08;;;;;;;26.40;16.30;;;;;;;11.25;85.14;100982.12;93842;1195;79267;-71
2021/10/02 07:20:15;;;;;;;25.40;17.00;;;;;;;11.31;85.00;100986.49;93793;1196;82050;-71
2021/10/02 07:22:20;;;;;;;24.80;15.70;;;;;;;11.35;84.96;100983.33;93817;1196;99255;-71
2021/10/02 07:24:25;;;;;;;24.60;16.40;;;;;;;11.35;84.82;100988.19;93868;1195;87575;-70
2021/10/02 07:26:30;;;;;;;23.70;16.40;;;;;;;11.39;84.84;100987.21;93804;1196;93884;-68
2021/10/02 07:28:34;;;;;;;23.90;17.20;;;;;;;11.44;84.76;100987.98;93771;1196;79548;-70
2021/10/02 07:30:38;;;;;;;28.50;17.40;;;;;;;11.45;84.68;100988.96;93730;1196;82625;-74
2021/10/02 07:32:44;;;;;;;25.40;16.50;;;;;;;11.39;84.63;100996.42;93679;1196;100740;-71
2021/10/02 07:34:49;;;;;;;23.10;15.90;;;;;;;11.35;84.59;100989.31;93768;1196;87195;-74
2021/10/02 07:36:53;;;;;;;23.30;16.60;;;;;;;11.35;84.70;100985.36;93840;1195;93263;-74
2021/10/02 07:39:01;;;;;;;23.20;15.50;;;;;;;11.35;84.61;100977.23;93812;1190;77179;-72
2021/10/02 07:41:05;;;;;;;24.60;16.00;;;;;;;11.31;84.69;100971.59;93855;1195;80669;-65
2021/10/02 07:43:15;;;;;;;27.10;16.20;;;;;;;11.33;84.73;100968.60;93773;1195;99727;-75
2021/10/02 07:45:25;;;;;;;23.90;16.10;;;;;;;11.34;84.65;100962.84;93831;1196;86119;-71
2021/10/02 07:47:31;;;;;;;20.20;14.80;;;;;;;11.38;84.60;100959.94;93827;1196;93887;-71
2021/10/02 07:49:38;;;;;;;22.40;15.90;;;;;;;11.41;84.67;100962.02;93788;1196;80831;-70
2021/10/02 07:51:43;;;;;;;23.50;16.30;;;;;;;11.46;84.61;100960.68;93816;1195;80426;-69
2021/10/02 07:53:50;;;;;;;25.60;15.60;;;;;;;11.48;84.53;100959.39;93835;1195;101002;-69
2021/10/02 07:55:54;;;;;;;25.80;15.70;;;;;;;11.55;84.57;100959.42;93833;1195;87536;-71
2021/10/02 07:57:59;;;;;;;22.60;14.80;;;;;;;11.56;84.53;100960.56;93728;1195;93739;-71
2021/10/02 08:00:05;;;;;;;23.40;15.20;;;;;;;11.63;84.37;100955.73;93823;1196;80356;-70
2021/10/02 08:02:09;;;;;;;25.20;16.80;;;;;;;11.69;84.45;100955.77;93844;1196;81579;-71
2021/10/02 08:04:14;;;;;;;24.10;16.00;;;;;;;11.73;84.42;100953.65;93825;1195;100035;-70
2021/10/02 08:06:24;;;;;;;25.80;16.20;;;;;;;11.79;84.30;100958.19;93737;1196;87895;-70
2021/10/02 08:08:28;;;;;;;25.90;15.80;;;;;;;11.79;84.21;100954.23;93793;1196;93838;-70
2021/10/02 08:10:36;;;;;;;25.60;16.50;;;;;;;11.77;84.17;100955.67;93794;1195;80418;-74
2021/10/02 08:12:41;;;;;;;22.90;15.60;;;;;;;11.86;84.13;100961.48;93816;1196;81206;-72
2021/10/02 08:14:46;;;;;;;22.80;15.90;;;;;;;11.90;84.11;100960.08;93793;1197;99470;-79
2021/10/02 08:16:53;;;;;;;20.20;14.90;;;;;;;11.93;84.06;100959.78;93810;1195;87413;-75
2021/10/02 08:19:00;;;;;;;23.40;16.10;;;;;;;11.94;83.90;100960.69;93783;1195;94296;-70
2021/10/02 08:21:06;;;;;;;24.10;15.50;;;;;;;11.97;83.85;100959.06;93784;1196;78525;-70
2021/10/02 08:23:13;;;;;;;23.60;16.00;;;;;;;11.96;83.89;100960.02;93772;1196;80655;-70
2021/10/02 08:25:19;;;;;;;21.00;15.60;;;;;;;11.94;83.84;100960.59;93794;1196;98328;-71
2021/10/02 08:27:29;;;;;;;24.20;15.40;;;;;;;11.96;83.78;100959.83;93812;1195;86865;-70
2021/10/02 08:29:34;;;;;;;24.50;15.30;;;;;;;11.98;83.82;100955.39;93779;1195;94129;-69
2021/10/02 08:31:39;;;;;;;18.70;13.20;;;;;;;11.96;83.76;100946.79;93799;1195;81283;-70
2021/10/02 08:33:43;;;;;;;19.80;15.00;;;;;;;12.03;83.69;100946.21;93707;1196;82192;-70
2021/10/02 08:35:50;;;;;;;20.80;15.30;;;;;;;12.07;83.69;100945.43;93837;1195;98124;-70
2021/10/02 08:37:55;;;;;;;21.40;16.10;;;;;;;12.10;83.63;100945.42;93843;1195;86640;-68
2021/10/02 08:39:59;;;;;;;21.70;14.60;;;;;;;12.15;83.61;100943.55;93788;1196;92927;-72
2021/10/02 08:42:05;;;;;;;20.70;14.30;;;;;;;12.17;83.54;100944.66;93813;1196;80279;-71
2021/10/02 08:44:13;;;;;;;19.80;14.20;;;;;;;12.19;83.31;100945.48;93842;1196;80341;-71
2021/10/02 08:46:18;;;;;;;20.30;15.20;;;;;;;12.18;83.37;100944.77;93837;1195;97775;-73
2021/10/02 08:48:22;;;;;;;19.80;14.80;;;;;;;12.19;83.22;100944.29;93874;1195;87725;-70
2021/10/02 08:50:28;;;;;;;23.00;15.50;;;;;;;12.18;83.18;100945.42;93807;1195;92719;-71
2021/10/02 08:52:34;;;;;;;22.30;15.00;;;;;;;12.18;83.19;100945.83;93835;1195;81439;-72
2021/10/02 08:54:43;;;;;;;22.30;16.10;;;;;;;12.19;83.13;100944.31;93834;1195;80030;-71
2021/10/02 08:56:51;;;;;;;20.00;15.10;;;;;;;12.25;83.19;100943.15;93810;1196;99699;-70
2021/10/02 08:58:56;;;;;;;21.10;15.80;;;;;;;12.29;83.15;100941.59;93838;1196;87127;-68
2021/10/02 09:01:00;;;;;;;23.40;16.00;;;;;;;12.33;83.09;100945.27;93804;1195;94380;-71
2021/10/02 09:03:05;;;;;;;22.10;16.50;;;;;;;12.37;83.06;100938.06;93804;1196;80078;-71
2021/10/02 09:05:13;;;;;;;21.70;17.00;;;;;;;12.44;82.95;100937.73;93805;1195;79685;-72
2021/10/02 09:07:23;;;;;;;22.70;16.40;;;;;;;12.56;82.98;100936.89;93832;1195;98074;-71
2021/10/02 09:09:28;;;;;;;19.90;15.90;;;;;;;12.64;83.03;100934.88;93845;1196;86658;-69
2021/10/02 09:11:33;;;;;;;24.80;18.30;;;;;;;12.81;82.99;100932.92;93798;1196;93046;-69
2021/10/02 09:13:37;;;;;;;21.50;16.60;;;;;;;12.87;82.74;100929.07;93817;1196;77771;-71
2021/10/02 09:15:41;;;;;;;21.70;17.40;;;;;;;12.92;82.70;100927.04;93830;1196;82958;-70
2021/10/02 09:17:49;;;;;;;20.90;16.90;;;;;;;12.87;82.49;100918.23;93860;1196;99454;-72
2021/10/02 09:19:54;;;;;;;21.00;16.10;;;;;;;12.89;82.36;100917.36;93724;1198;86146;-72
2021/10/02 09:22:04;;;;;;;22.00;17.00;;;;;;;12.94;82.32;100919.14;93851;1195;94301;-71
2021/10/02 09:24:21;;;;;;;21.30;17.40;;;;;;;13.00;82.29;100919.09;93781;1195;78803;-72
2021/10/02 09:26:44;;;;;;;20.60;16.00;;;;;;;13.09;82.28;100915.45;93861;1195;81046;-73
2021/10/02 09:28:51;;;;;;;21.00;15.50;;;;;;;13.22;82.27;100914.07;93857;1196;98314;-73
2021/10/02 09:31:06;;;;;;;20.80;15.40;;;;;;;13.34;82.16;100914.52;93845;1196;87751;-67
2021/10/02 09:33:14;;;;;;;18.30;15.10;;;;;;;13.54;82.08;100914.54;93900;1196;94279;-71
2021/10/02 09:35:21;;;;;;;21.00;15.40;;;;;;;13.75;81.91;100915.40;93811;1195;80135;-68
2021/10/02 09:37:28;;;;;;;19.20;15.30;;;;;;;13.94;81.85;100912.66;93837;1195;80532;-69
2021/10/02 09:39:46;;;;;;;18.40;14.60;;;;;;;14.06;81.40;100911.38;93835;1196;98373;-70
2021/10/02 09:41:52;;;;;;;17.80;14.70;;;;;;;14.20;81.33;100905.48;93854;1196;86967;-63
2021/10/02 09:43:57;;;;;;;18.40;15.40;;;;;;;14.40;81.08;100902.27;93810;1196;93256;-67
2021/10/02 09:46:01;;;;;;;20.00;15.80;;;;;;;14.61;80.95;100898.31;93759;1195;79428;-70
2021/10/02 09:48:09;;;;;;;19.70;15.20;;;;;;;14.69;80.40;100896.16;93859;1196;81851;-70
2021/10/02 09:50:17;;;;;;;19.20;14.40;;;;;;;14.71;79.93;100896.25;93818;1196;98449;-69
2021/10/02 09:52:34;;;;;;;17.20;14.80;;;;;;;14.56;79.37;100901.34;93871;1196;88391;-69
2021/10/02 09:54:49;;;;;;;18.20;14.90;;;;;;;14.42;79.34;100898.35;93841;1196;94492;-70
2021/10/02 09:57:13;;;;;;;18.00;14.60;;;;;;;14.38;79.29;100904.72;93750;1196;80151;-70
2021/10/02 09:59:24;;;;;;;14.60;12.30;;;;;;;14.40;79.23;100903.64;93806;1196;79893;-68
2021/10/02 10:01:31;;;;;;;16.10;13.20;;;;;;;14.47;79.16;100896.66;93812;1196;97996;-69
2021/10/02 10:03:44;;;;;;;16.40;14.10;;;;;;;14.59;79.22;100900.09;93678;1196;88992;-65
2021/10/02 10:05:54;;;;;;;15.60;13.90;;;;;;;14.62;78.84;100898.60;93802;1196;92962;-70
2021/10/02 10:08:02;;;;;;;17.50;13.70;;;;;;;14.54;78.70;100896.77;93751;1196;79234;-72
2021/10/02 10:10:11;;;;;;;15.10;12.90;;;;;;;14.37;78.55;100894.27;93718;1196;82175;-68
2021/10/02 10:12:24;;;;;;;15.90;13.30;;;;;;;14.36;78.68;100889.78;93782;1196;98535;-68
2021/10/02 10:14:29;;;;;;;13.90;12.00;;;;;;;14.34;78.58;100889.41;93849;1195;89099;-69
2021/10/02 10:16:38;;;;;;;16.50;12.60;;;;;;;14.34;78.63;100885.63;93896;1196;94023;-72
2021/10/02 10:18:43;;;;;;;15.00;11.90;;;;;;;14.40;78.63;100881.36;93799;1196;78449;-71
2021/10/02 10:20:52;;;;;;;15.50;13.00;;;;;;;14.48;78.59;100874.50;93801;1196;80747;-69
2021/10/02 10:22:59;;;;;;;69.70;52.50;;;;;;;14.52;78.60;100876.31;93782;1196;99765;-68
2021/10/02 10:25:11;;;;;;;21.70;17.00;;;;;;;14.53;78.48;100871.80;93870;1196;88409;-69
2021/10/02 10:27:30;;;;;;;16.70;12.80;;;;;;;14.53;78.30;100868.27;93805;1195;93858;-69